sensor_id;sensor_type;location;lat;lon;timestamp;P1;durP1;ratioP1;P2;durP2;ratioP2
73779;SDS011;62093;37.614;15.072;2022-12-29T00:02:26;11.13;;;7.47;;
73779;SDS011;62093;37.614;15.072;2022-12-29T00:04:52;10.07;;;7.20;;
73779;SDS011;62093;37.614;15.072;2022-12-29T00:07:18;10.02;;;6.85;;
73779;SDS011;62093;37.614;15.072;2022-12-29T00:09:47;10.30;;;7.17;;
73779;SDS011;62093;37.614;15.072;2022-12-29T00:12:14;11.07;;;7.25;;
73779;SDS011;62093;37.614;15.072;2022-12-29T00:14:40;11.48;;;7.80;;
73779;SDS011;62093;37.614;15.072;2022-12-29T00:17:25;11.27;;;7.15;;
73779;SDS011;62093;37.614;15.072;2022-12-29T00:19:52;10.63;;;7.22;;
73779;SDS011;62093;37.614;15.072;2022-12-29T00:22:40;13.17;;;8.63;;
73779;SDS011;62093;37.614;15.072;2022-12-29T00:25:24;10.10;;;7.05;;
73779;SDS011;62093;37.614;15.072;2022-12-29T00:28:09;10.13;;;7.03;;
73779;SDS011;62093;37.614;15.072;2022-12-29T00:30:58;10.15;;;7.10;;
73779;SDS011;62093;37.614;15.072;2022-12-29T00:33:44;10.15;;;6.80;;
73779;SDS011;62093;37.614;15.072;2022-12-29T00:36:32;9.60;;;6.63;;
73779;SDS011;62093;37.614;15.072;2022-12-29T00:39:08;10.55;;;7.07;;
73779;SDS011;62093;37.614;15.072;2022-12-29T00:41:55;10.52;;;7.55;;
73779;SDS011;62093;37.614;15.072;2022-12-29T00:44:41;11.30;;;6.75;;
73779;SDS011;62093;37.614;15.072;2022-12-29T00:47:08;9.35;;;6.57;;
73779;SDS011;62093;37.614;15.072;2022-12-29T00:49:35;9.23;;;6.63;;
73779;SDS011;62093;37.614;15.072;2022-12-29T00:52:02;8.98;;;6.43;;
73779;SDS011;62093;37.614;15.072;2022-12-29T00:54:35;9.88;;;6.65;;
73779;SDS011;62093;37.614;15.072;2022-12-29T00:57:04;10.48;;;7.10;;
73779;SDS011;62093;37.614;15.072;2022-12-29T00:59:32;9.07;;;6.57;;
73779;SDS011;62093;37.614;15.072;2022-12-29T01:02:00;9.60;;;6.80;;
73779;SDS011;62093;37.614;15.072;2022-12-29T01:04:28;10.57;;;6.30;;
73779;SDS011;62093;37.614;15.072;2022-12-29T01:06:54;10.20;;;6.63;;
73779;SDS011;62093;37.614;15.072;2022-12-29T01:09:20;10.02;;;6.85;;
73779;SDS011;62093;37.614;15.072;2022-12-29T01:12:05;10.20;;;6.60;;
73779;SDS011;62093;37.614;15.072;2022-12-29T01:14:34;8.53;;;6.40;;
73779;SDS011;62093;37.614;15.072;2022-12-29T01:17:02;9.32;;;6.53;;
73779;SDS011;62093;37.614;15.072;2022-12-29T01:19:29;9.65;;;6.35;;
73779;SDS011;62093;37.614;15.072;2022-12-29T01:21:55;9.13;;;6.00;;
73779;SDS011;62093;37.614;15.072;2022-12-29T01:24:22;9.77;;;6.90;;
73779;SDS011;62093;37.614;15.072;2022-12-29T01:26:50;10.87;;;6.50;;
73779;SDS011;62093;37.614;15.072;2022-12-29T01:29:16;9.13;;;6.10;;
73779;SDS011;62093;37.614;15.072;2022-12-29T01:31:45;8.98;;;6.40;;
73779;SDS011;62093;37.614;15.072;2022-12-29T01:34:11;10.48;;;6.28;;
73779;SDS011;62093;37.614;15.072;2022-12-29T01:36:38;10.02;;;6.78;;
73779;SDS011;62093;37.614;15.072;2022-12-29T01:39:05;9.60;;;6.03;;
73779;SDS011;62093;37.614;15.072;2022-12-29T01:41:32;9.32;;;6.28;;
73779;SDS011;62093;37.614;15.072;2022-12-29T01:44:00;9.40;;;6.13;;
73779;SDS011;62093;37.614;15.072;2022-12-29T01:51:47;9.07;;;5.50;;
73779;SDS011;62093;37.614;15.072;2022-12-29T01:57:18;8.75;;;6.30;;
73779;SDS011;62093;37.614;15.072;2022-12-29T01:59:49;8.68;;;5.93;;
73779;SDS011;62093;37.614;15.072;2022-12-29T02:02:23;8.73;;;5.78;;
73779;SDS011;62093;37.614;15.072;2022-12-29T02:04:50;8.67;;;5.90;;
73779;SDS011;62093;37.614;15.072;2022-12-29T02:07:19;8.73;;;6.00;;
73779;SDS011;62093;37.614;15.072;2022-12-29T02:09:47;8.40;;;5.97;;
73779;SDS011;62093;37.614;15.072;2022-12-29T02:12:16;8.68;;;5.80;;
73779;SDS011;62093;37.614;15.072;2022-12-29T02:14:44;9.88;;;5.40;;
73779;SDS011;62093;37.614;15.072;2022-12-29T02:37:12;8.30;;;5.70;;
73779;SDS011;62093;37.614;15.072;2022-12-29T02:42:36;8.73;;;5.65;;
73779;SDS011;62093;37.614;15.072;2022-12-29T02:45:26;7.83;;;5.30;;
73779;SDS011;62093;37.614;15.072;2022-12-29T02:50:39;9.00;;;5.88;;
73779;SDS011;62093;37.614;15.072;2022-12-29T02:53:12;8.43;;;5.30;;
73779;SDS011;62093;37.614;15.072;2022-12-29T02:55:51;8.07;;;5.78;;
73779;SDS011;62093;37.614;15.072;2022-12-29T02:58:20;8.37;;;5.53;;
73779;SDS011;62093;37.614;15.072;2022-12-29T03:06:52;8.80;;;5.45;;
73779;SDS011;62093;37.614;15.072;2022-12-29T03:15:03;8.88;;;5.40;;
73779;SDS011;62093;37.614;15.072;2022-12-29T03:17:56;8.25;;;5.53;;
73779;SDS011;62093;37.614;15.072;2022-12-29T03:20:28;7.25;;;5.57;;
73779;SDS011;62093;37.614;15.072;2022-12-29T03:23:04;8.10;;;5.05;;
73779;SDS011;62093;37.614;15.072;2022-12-29T03:25:37;8.43;;;5.30;;
73779;SDS011;62093;37.614;15.072;2022-12-29T03:28:16;8.45;;;5.65;;
73779;SDS011;62093;37.614;15.072;2022-12-29T03:30:47;8.63;;;5.40;;
73779;SDS011;62093;37.614;15.072;2022-12-29T03:33:23;8.25;;;5.07;;
73779;SDS011;62093;37.614;15.072;2022-12-29T03:35:55;8.45;;;5.32;;
73779;SDS011;62093;37.614;15.072;2022-12-29T03:40:58;8.30;;;5.10;;
73779;SDS011;62093;37.614;15.072;2022-12-29T03:43:29;8.65;;;4.95;;
73779;SDS011;62093;37.614;15.072;2022-12-29T03:45:57;7.40;;;5.13;;
73779;SDS011;62093;37.614;15.072;2022-12-29T03:48:23;7.30;;;4.82;;
73779;SDS011;62093;37.614;15.072;2022-12-29T03:50:52;8.30;;;5.10;;
73779;SDS011;62093;37.614;15.072;2022-12-29T03:53:19;7.93;;;4.55;;
73779;SDS011;62093;37.614;15.072;2022-12-29T03:55:46;8.27;;;4.95;;
73779;SDS011;62093;37.614;15.072;2022-12-29T03:58:13;8.45;;;5.53;;
73779;SDS011;62093;37.614;15.072;2022-12-29T04:00:56;7.55;;;5.25;;
73779;SDS011;62093;37.614;15.072;2022-12-29T04:03:23;7.80;;;5.43;;
73779;SDS011;62093;37.614;15.072;2022-12-29T04:05:53;8.35;;;5.20;;
73779;SDS011;62093;37.614;15.072;2022-12-29T04:08:19;7.38;;;4.95;;
73779;SDS011;62093;37.614;15.072;2022-12-29T04:10:48;7.40;;;5.00;;
73779;SDS011;62093;37.614;15.072;2022-12-29T04:13:22;6.97;;;4.68;;
73779;SDS011;62093;37.614;15.072;2022-12-29T04:15:48;7.40;;;4.80;;
73779;SDS011;62093;37.614;15.072;2022-12-29T04:18:21;7.63;;;4.95;;
73779;SDS011;62093;37.614;15.072;2022-12-29T04:20:54;8.20;;;5.20;;
73779;SDS011;62093;37.614;15.072;2022-12-29T04:23:33;7.32;;;5.30;;
73779;SDS011;62093;37.614;15.072;2022-12-29T04:26:15;7.43;;;4.47;;
73779;SDS011;62093;37.614;15.072;2022-12-29T04:28:52;7.43;;;4.33;;
73779;SDS011;62093;37.614;15.072;2022-12-29T04:31:36;6.80;;;4.50;;
73779;SDS011;62093;37.614;15.072;2022-12-29T04:34:06;7.97;;;4.78;;
73779;SDS011;62093;37.614;15.072;2022-12-29T04:36:33;7.20;;;4.88;;
73779;SDS011;62093;37.614;15.072;2022-12-29T04:39:00;7.32;;;4.80;;
73779;SDS011;62093;37.614;15.072;2022-12-29T04:41:27;7.73;;;5.13;;
73779;SDS011;62093;37.614;15.072;2022-12-29T04:43:57;8.07;;;5.00;;
73779;SDS011;62093;37.614;15.072;2022-12-29T04:46:35;7.90;;;4.72;;
73779;SDS011;62093;37.614;15.072;2022-12-29T04:49:09;7.13;;;4.68;;
73779;SDS011;62093;37.614;15.072;2022-12-29T04:52:07;8.80;;;4.95;;
73779;SDS011;62093;37.614;15.072;2022-12-29T04:54:34;7.27;;;4.70;;
73779;SDS011;62093;37.614;15.072;2022-12-29T04:57:12;6.53;;;4.38;;
73779;SDS011;62093;37.614;15.072;2022-12-29T04:59:39;7.10;;;4.53;;
73779;SDS011;62093;37.614;15.072;2022-12-29T05:02:07;7.50;;;4.65;;
73779;SDS011;62093;37.614;15.072;2022-12-29T05:04:35;7.40;;;4.30;;
73779;SDS011;62093;37.614;15.072;2022-12-29T05:07:04;7.63;;;4.80;;
73779;SDS011;62093;37.614;15.072;2022-12-29T05:09:31;8.82;;;4.60;;
73779;SDS011;62093;37.614;15.072;2022-12-29T05:11:59;6.60;;;4.57;;
73779;SDS011;62093;37.614;15.072;2022-12-29T05:14:26;7.53;;;4.30;;
73779;SDS011;62093;37.614;15.072;2022-12-29T05:16:53;8.38;;;5.00;;
73779;SDS011;62093;37.614;15.072;2022-12-29T05:19:19;6.50;;;4.20;;
73779;SDS011;62093;37.614;15.072;2022-12-29T05:21:46;6.60;;;4.40;;
73779;SDS011;62093;37.614;15.072;2022-12-29T05:24:13;7.57;;;4.82;;
73779;SDS011;62093;37.614;15.072;2022-12-29T05:26:41;8.43;;;4.70;;
73779;SDS011;62093;37.614;15.072;2022-12-29T05:29:30;7.63;;;4.90;;
73779;SDS011;62093;37.614;15.072;2022-12-29T05:31:57;7.37;;;4.53;;
73779;SDS011;62093;37.614;15.072;2022-12-29T05:34:23;6.93;;;4.45;;
73779;SDS011;62093;37.614;15.072;2022-12-29T05:36:50;7.47;;;4.40;;
73779;SDS011;62093;37.614;15.072;2022-12-29T05:39:17;6.55;;;4.45;;
73779;SDS011;62093;37.614;15.072;2022-12-29T05:41:49;6.90;;;4.78;;
73779;SDS011;62093;37.614;15.072;2022-12-29T05:44:54;6.83;;;4.30;;
73779;SDS011;62093;37.614;15.072;2022-12-29T05:47:38;7.68;;;4.20;;
73779;SDS011;62093;37.614;15.072;2022-12-29T05:50:20;6.97;;;4.75;;
73779;SDS011;62093;37.614;15.072;2022-12-29T05:53:05;7.18;;;4.45;;
73779;SDS011;62093;37.614;15.072;2022-12-29T05:55:31;6.28;;;3.85;;
73779;SDS011;62093;37.614;15.072;2022-12-29T05:57:59;6.83;;;4.00;;
73779;SDS011;62093;37.614;15.072;2022-12-29T06:00:25;6.78;;;4.20;;
73779;SDS011;62093;37.614;15.072;2022-12-29T06:02:52;6.65;;;4.00;;
73779;SDS011;62093;37.614;15.072;2022-12-29T06:05:19;6.38;;;4.00;;
73779;SDS011;62093;37.614;15.072;2022-12-29T06:07:46;6.57;;;4.40;;
73779;SDS011;62093;37.614;15.072;2022-12-29T06:10:15;6.70;;;4.30;;
73779;SDS011;62093;37.614;15.072;2022-12-29T06:13:14;7.80;;;4.32;;
73779;SDS011;62093;37.614;15.072;2022-12-29T06:15:43;7.25;;;4.38;;
73779;SDS011;62093;37.614;15.072;2022-12-29T06:18:10;6.75;;;4.10;;
73779;SDS011;62093;37.614;15.072;2022-12-29T06:20:39;6.20;;;3.95;;
73779;SDS011;62093;37.614;15.072;2022-12-29T06:23:07;6.53;;;4.40;;
73779;SDS011;62093;37.614;15.072;2022-12-29T06:25:34;6.13;;;4.18;;
73779;SDS011;62093;37.614;15.072;2022-12-29T06:28:02;7.18;;;4.20;;
73779;SDS011;62093;37.614;15.072;2022-12-29T06:30:28;7.43;;;4.25;;
73779;SDS011;62093;37.614;15.072;2022-12-29T06:32:55;6.35;;;4.00;;
73779;SDS011;62093;37.614;15.072;2022-12-29T06:35:23;6.40;;;3.97;;
73779;SDS011;62093;37.614;15.072;2022-12-29T06:37:51;6.32;;;3.67;;
73779;SDS011;62093;37.614;15.072;2022-12-29T06:40:17;6.80;;;4.30;;
73779;SDS011;62093;37.614;15.072;2022-12-29T06:43:07;6.82;;;3.97;;
73779;SDS011;62093;37.614;15.072;2022-12-29T06:45:44;6.82;;;3.85;;
73779;SDS011;62093;37.614;15.072;2022-12-29T06:48:10;5.97;;;3.70;;
73779;SDS011;62093;37.614;15.072;2022-12-29T06:50:37;6.00;;;3.88;;
73779;SDS011;62093;37.614;15.072;2022-12-29T06:53:03;6.65;;;3.70;;
73779;SDS011;62093;37.614;15.072;2022-12-29T06:55:33;7.88;;;4.13;;
73779;SDS011;62093;37.614;15.072;2022-12-29T06:58:02;6.20;;;3.83;;
73779;SDS011;62093;37.614;15.072;2022-12-29T07:00:29;6.87;;;3.90;;
73779;SDS011;62093;37.614;15.072;2022-12-29T07:02:56;6.45;;;3.67;;
73779;SDS011;62093;37.614;15.072;2022-12-29T07:05:25;6.60;;;3.95;;
73779;SDS011;62093;37.614;15.072;2022-12-29T07:07:57;6.32;;;3.65;;
73779;SDS011;62093;37.614;15.072;2022-12-29T07:10:23;6.50;;;3.80;;
73779;SDS011;62093;37.614;15.072;2022-12-29T07:12:50;6.20;;;3.37;;
73779;SDS011;62093;37.614;15.072;2022-12-29T07:15:16;6.35;;;3.90;;
73779;SDS011;62093;37.614;15.072;2022-12-29T07:17:43;6.47;;;4.13;;
73779;SDS011;62093;37.614;15.072;2022-12-29T07:20:09;5.72;;;3.45;;
73779;SDS011;62093;37.614;15.072;2022-12-29T07:22:36;6.80;;;3.78;;
73779;SDS011;62093;37.614;15.072;2022-12-29T07:25:04;6.63;;;3.80;;
73779;SDS011;62093;37.614;15.072;2022-12-29T07:27:31;6.93;;;4.20;;
73779;SDS011;62093;37.614;15.072;2022-12-29T07:29:57;6.38;;;3.78;;
73779;SDS011;62093;37.614;15.072;2022-12-29T07:32:23;6.18;;;3.45;;
73779;SDS011;62093;37.614;15.072;2022-12-29T07:34:50;6.15;;;3.63;;
73779;SDS011;62093;37.614;15.072;2022-12-29T07:37:16;6.23;;;3.43;;
73779;SDS011;62093;37.614;15.072;2022-12-29T07:39:43;5.85;;;3.58;;
73779;SDS011;62093;37.614;15.072;2022-12-29T07:42:10;5.97;;;3.78;;
73779;SDS011;62093;37.614;15.072;2022-12-29T07:44:41;5.97;;;3.65;;
73779;SDS011;62093;37.614;15.072;2022-12-29T07:47:32;6.63;;;3.75;;
73779;SDS011;62093;37.614;15.072;2022-12-29T07:49:59;6.17;;;3.53;;
73779;SDS011;62093;37.614;15.072;2022-12-29T07:52:25;5.82;;;3.72;;
73779;SDS011;62093;37.614;15.072;2022-12-29T07:54:52;6.05;;;3.65;;
73779;SDS011;62093;37.614;15.072;2022-12-29T07:57:22;6.25;;;3.83;;
73779;SDS011;62093;37.614;15.072;2022-12-29T07:59:52;6.13;;;3.90;;
73779;SDS011;62093;37.614;15.072;2022-12-29T08:02:19;5.93;;;3.47;;
73779;SDS011;62093;37.614;15.072;2022-12-29T08:04:46;6.05;;;3.40;;
73779;SDS011;62093;37.614;15.072;2022-12-29T08:07:12;6.30;;;3.60;;
73779;SDS011;62093;37.614;15.072;2022-12-29T08:09:38;6.10;;;3.63;;
73779;SDS011;62093;37.614;15.072;2022-12-29T08:12:05;6.43;;;3.92;;
73779;SDS011;62093;37.614;15.072;2022-12-29T08:14:32;5.83;;;3.40;;
73779;SDS011;62093;37.614;15.072;2022-12-29T08:16:58;6.00;;;3.53;;
73779;SDS011;62093;37.614;15.072;2022-12-29T08:19:28;6.03;;;3.53;;
73779;SDS011;62093;37.614;15.072;2022-12-29T08:21:54;5.57;;;3.60;;
73779;SDS011;62093;37.614;15.072;2022-12-29T08:24:20;6.22;;;3.92;;
73779;SDS011;62093;37.614;15.072;2022-12-29T08:26:47;6.70;;;3.73;;
73779;SDS011;62093;37.614;15.072;2022-12-29T08:29:14;5.95;;;3.40;;
73779;SDS011;62093;37.614;15.072;2022-12-29T08:31:44;6.55;;;3.80;;
73779;SDS011;62093;37.614;15.072;2022-12-29T08:34:11;5.80;;;3.63;;
73779;SDS011;62093;37.614;15.072;2022-12-29T08:36:39;5.90;;;3.47;;
73779;SDS011;62093;37.614;15.072;2022-12-29T08:39:06;6.53;;;3.93;;
73779;SDS011;62093;37.614;15.072;2022-12-29T08:41:32;6.53;;;3.95;;
73779;SDS011;62093;37.614;15.072;2022-12-29T08:43:59;6.28;;;3.47;;
73779;SDS011;62093;37.614;15.072;2022-12-29T08:46:29;5.85;;;3.35;;
73779;SDS011;62093;37.614;15.072;2022-12-29T08:48:56;6.63;;;4.20;;
73779;SDS011;62093;37.614;15.072;2022-12-29T08:51:22;6.43;;;4.00;;
73779;SDS011;62093;37.614;15.072;2022-12-29T08:53:49;6.50;;;3.50;;
73779;SDS011;62093;37.614;15.072;2022-12-29T08:56:16;6.57;;;3.78;;
73779;SDS011;62093;37.614;15.072;2022-12-29T08:58:48;6.70;;;3.90;;
73779;SDS011;62093;37.614;15.072;2022-12-29T09:01:17;5.55;;;3.45;;
73779;SDS011;62093;37.614;15.072;2022-12-29T09:03:43;7.60;;;3.80;;
73779;SDS011;62093;37.614;15.072;2022-12-29T09:06:10;5.97;;;3.70;;
73779;SDS011;62093;37.614;15.072;2022-12-29T09:08:37;6.43;;;3.88;;
73779;SDS011;62093;37.614;15.072;2022-12-29T09:11:07;6.65;;;3.47;;
73779;SDS011;62093;37.614;15.072;2022-12-29T09:13:52;6.40;;;4.30;;
73779;SDS011;62093;37.614;15.072;2022-12-29T09:16:19;5.67;;;3.53;;
73779;SDS011;62093;37.614;15.072;2022-12-29T09:18:47;6.60;;;3.70;;
73779;SDS011;62093;37.614;15.072;2022-12-29T09:21:13;6.30;;;3.60;;
73779;SDS011;62093;37.614;15.072;2022-12-29T09:23:43;6.32;;;3.97;;
73779;SDS011;62093;37.614;15.072;2022-12-29T09:26:09;6.13;;;3.70;;
73779;SDS011;62093;37.614;15.072;2022-12-29T09:28:36;6.93;;;3.83;;
73779;SDS011;62093;37.614;15.072;2022-12-29T09:31:02;6.10;;;3.67;;
73779;SDS011;62093;37.614;15.072;2022-12-29T09:33:29;6.30;;;4.03;;
73779;SDS011;62093;37.614;15.072;2022-12-29T09:35:58;7.82;;;3.58;;
73779;SDS011;62093;37.614;15.072;2022-12-29T09:38:25;6.72;;;4.28;;
73779;SDS011;62093;37.614;15.072;2022-12-29T09:40:53;6.23;;;3.53;;
73779;SDS011;62093;37.614;15.072;2022-12-29T09:48:33;6.35;;;4.00;;
73779;SDS011;62093;37.614;15.072;2022-12-29T09:51:05;5.95;;;3.65;;
73779;SDS011;62093;37.614;15.072;2022-12-29T09:53:45;6.33;;;3.60;;
73779;SDS011;62093;37.614;15.072;2022-12-29T09:56:43;7.25;;;4.15;;
73779;SDS011;62093;37.614;15.072;2022-12-29T09:59:13;6.47;;;3.97;;
73779;SDS011;62093;37.614;15.072;2022-12-29T10:01:51;6.07;;;3.78;;
73779;SDS011;62093;37.614;15.072;2022-12-29T10:04:42;6.75;;;4.18;;
73779;SDS011;62093;37.614;15.072;2022-12-29T10:23:22;7.00;;;3.97;;
73779;SDS011;62093;37.614;15.072;2022-12-29T10:26:00;7.85;;;4.05;;
73779;SDS011;62093;37.614;15.072;2022-12-29T10:28:36;6.10;;;3.80;;
73779;SDS011;62093;37.614;15.072;2022-12-29T10:31:13;6.80;;;3.50;;
73779;SDS011;62093;37.614;15.072;2022-12-29T10:33:48;6.20;;;3.47;;
73779;SDS011;62093;37.614;15.072;2022-12-29T10:36:26;6.80;;;3.55;;
73779;SDS011;62093;37.614;15.072;2022-12-29T10:41:48;6.30;;;3.67;;
73779;SDS011;62093;37.614;15.072;2022-12-29T10:44:34;7.38;;;3.70;;
73779;SDS011;62093;37.614;15.072;2022-12-29T10:47:06;7.13;;;3.63;;
73779;SDS011;62093;37.614;15.072;2022-12-29T10:49:39;6.63;;;3.53;;
73779;SDS011;62093;37.614;15.072;2022-12-29T10:52:10;6.35;;;3.38;;
73779;SDS011;62093;37.614;15.072;2022-12-29T10:54:40;6.28;;;3.75;;
73779;SDS011;62093;37.614;15.072;2022-12-29T10:59:59;6.73;;;3.90;;
73779;SDS011;62093;37.614;15.072;2022-12-29T11:08:30;7.03;;;3.92;;
73779;SDS011;62093;37.614;15.072;2022-12-29T11:11:02;7.05;;;3.88;;
73779;SDS011;62093;37.614;15.072;2022-12-29T11:13:35;7.63;;;3.90;;
73779;SDS011;62093;37.614;15.072;2022-12-29T11:16:13;6.18;;;3.85;;
73779;SDS011;62093;37.614;15.072;2022-12-29T11:18:40;7.05;;;3.72;;
73779;SDS011;62093;37.614;15.072;2022-12-29T11:24:03;6.75;;;4.07;;
73779;SDS011;62093;37.614;15.072;2022-12-29T11:26:32;8.30;;;3.80;;
73779;SDS011;62093;37.614;15.072;2022-12-29T11:31:44;6.75;;;4.18;;
73779;SDS011;62093;37.614;15.072;2022-12-29T11:34:19;6.25;;;3.83;;
73779;SDS011;62093;37.614;15.072;2022-12-29T11:36:57;7.40;;;4.03;;
73779;SDS011;62093;37.614;15.072;2022-12-29T11:42:00;7.03;;;4.00;;
73779;SDS011;62093;37.614;15.072;2022-12-29T11:44:34;6.93;;;3.88;;
73779;SDS011;62093;37.614;15.072;2022-12-29T11:47:03;6.40;;;3.90;;
73779;SDS011;62093;37.614;15.072;2022-12-29T11:49:33;6.90;;;3.97;;
73779;SDS011;62093;37.614;15.072;2022-12-29T11:52:00;6.97;;;3.90;;
73779;SDS011;62093;37.614;15.072;2022-12-29T11:54:34;6.50;;;3.67;;
73779;SDS011;62093;37.614;15.072;2022-12-29T11:57:10;7.18;;;4.47;;
73779;SDS011;62093;37.614;15.072;2022-12-29T11:59:55;7.45;;;4.15;;
73779;SDS011;62093;37.614;15.072;2022-12-29T12:10:16;6.32;;;3.78;;
73779;SDS011;62093;37.614;15.072;2022-12-29T12:12:53;7.10;;;3.90;;
73779;SDS011;62093;37.614;15.072;2022-12-29T12:15:50;7.75;;;4.40;;
73779;SDS011;62093;37.614;15.072;2022-12-29T12:27:02;7.55;;;4.10;;
73779;SDS011;62093;37.614;15.072;2022-12-29T12:35:03;7.63;;;4.32;;
73779;SDS011;62093;37.614;15.072;2022-12-29T13:05:44;6.93;;;4.30;;
73779;SDS011;62093;37.614;15.072;2022-12-29T13:08:31;6.40;;;3.90;;
73779;SDS011;62093;37.614;15.072;2022-12-29T13:10:54;6.15;;;3.70;;
73779;SDS011;62093;37.614;15.072;2022-12-29T13:21:31;7.50;;;3.97;;
73779;SDS011;62093;37.614;15.072;2022-12-29T13:26:53;6.53;;;4.17;;
73779;SDS011;62093;37.614;15.072;2022-12-29T13:29:41;7.70;;;4.20;;
73779;SDS011;62093;37.614;15.072;2022-12-29T13:32:16;6.97;;;3.92;;
73779;SDS011;62093;37.614;15.072;2022-12-29T13:37:31;7.13;;;3.63;;
73779;SDS011;62093;37.614;15.072;2022-12-29T13:40:10;6.67;;;3.80;;
73779;SDS011;62093;37.614;15.072;2022-12-29T13:42:40;6.10;;;4.00;;
73779;SDS011;62093;37.614;15.072;2022-12-29T13:45:19;7.15;;;4.07;;
73779;SDS011;62093;37.614;15.072;2022-12-29T13:50:29;6.72;;;4.13;;
73779;SDS011;62093;37.614;15.072;2022-12-29T14:00:57;7.25;;;4.20;;
73779;SDS011;62093;37.614;15.072;2022-12-29T14:08:58;7.18;;;4.10;;
73779;SDS011;62093;37.614;15.072;2022-12-29T14:11:31;7.03;;;4.20;;
73779;SDS011;62093;37.614;15.072;2022-12-29T14:13:59;6.32;;;3.85;;
73779;SDS011;62093;37.614;15.072;2022-12-29T14:16:37;6.65;;;4.10;;
73779;SDS011;62093;37.614;15.072;2022-12-29T14:19:04;7.53;;;4.00;;
73779;SDS011;62093;37.614;15.072;2022-12-29T14:21:36;6.45;;;3.72;;
73779;SDS011;62093;37.614;15.072;2022-12-29T14:27:00;6.13;;;3.47;;
73779;SDS011;62093;37.614;15.072;2022-12-29T14:29:47;6.85;;;3.88;;
73779;SDS011;62093;37.614;15.072;2022-12-29T14:34:47;6.07;;;3.47;;
73779;SDS011;62093;37.614;15.072;2022-12-29T14:42:39;6.68;;;3.38;;
73779;SDS011;62093;37.614;15.072;2022-12-29T14:47:42;6.70;;;3.88;;
73779;SDS011;62093;37.614;15.072;2022-12-29T14:52:49;6.47;;;3.70;;
73779;SDS011;62093;37.614;15.072;2022-12-29T14:58:03;7.43;;;3.90;;
73779;SDS011;62093;37.614;15.072;2022-12-29T15:00:35;6.70;;;3.75;;
73779;SDS011;62093;37.614;15.072;2022-12-29T15:05:45;6.90;;;3.95;;
73779;SDS011;62093;37.614;15.072;2022-12-29T15:08:16;6.03;;;3.63;;
73779;SDS011;62093;37.614;15.072;2022-12-29T15:10:47;7.30;;;4.17;;
73779;SDS011;62093;37.614;15.072;2022-12-29T15:13:22;7.05;;;4.00;;
73779;SDS011;62093;37.614;15.072;2022-12-29T15:15:51;7.32;;;3.72;;
73779;SDS011;62093;37.614;15.072;2022-12-29T15:18:25;7.00;;;4.35;;
73779;SDS011;62093;37.614;15.072;2022-12-29T15:20:53;6.35;;;4.03;;
73779;SDS011;62093;37.614;15.072;2022-12-29T15:23:22;7.87;;;4.10;;
73779;SDS011;62093;37.614;15.072;2022-12-29T15:25:56;7.97;;;4.53;;
73779;SDS011;62093;37.614;15.072;2022-12-29T15:28:24;7.03;;;4.07;;
73779;SDS011;62093;37.614;15.072;2022-12-29T15:30:52;6.53;;;3.95;;
73779;SDS011;62093;37.614;15.072;2022-12-29T15:33:27;8.13;;;4.57;;
73779;SDS011;62093;37.614;15.072;2022-12-29T15:35:55;7.97;;;4.90;;
73779;SDS011;62093;37.614;15.072;2022-12-29T15:38:28;9.65;;;5.22;;
73779;SDS011;62093;37.614;15.072;2022-12-29T15:41:39;13.48;;;8.52;;
73779;SDS011;62093;37.614;15.072;2022-12-29T15:46:26;17.23;;;10.27;;
73779;SDS011;62093;37.614;15.072;2022-12-29T15:48:55;19.87;;;12.13;;
73779;SDS011;62093;37.614;15.072;2022-12-29T15:51:34;24.92;;;14.90;;
73779;SDS011;62093;37.614;15.072;2022-12-29T15:54:03;28.02;;;17.45;;
73779;SDS011;62093;37.614;15.072;2022-12-29T15:56:30;27.17;;;16.25;;
73779;SDS011;62093;37.614;15.072;2022-12-29T15:58:58;27.65;;;16.13;;
73779;SDS011;62093;37.614;15.072;2022-12-29T16:01:35;30.33;;;17.47;;
73779;SDS011;62093;37.614;15.072;2022-12-29T16:04:08;29.00;;;17.42;;
73779;SDS011;62093;37.614;15.072;2022-12-29T16:06:38;28.15;;;16.92;;
73779;SDS011;62093;37.614;15.072;2022-12-29T16:09:17;27.75;;;16.70;;
73779;SDS011;62093;37.614;15.072;2022-12-29T16:11:46;28.73;;;16.52;;
73779;SDS011;62093;37.614;15.072;2022-12-29T16:14:25;27.00;;;17.30;;
73779;SDS011;62093;37.614;15.072;2022-12-29T16:16:55;28.05;;;16.23;;
73779;SDS011;62093;37.614;15.072;2022-12-29T16:19:29;26.83;;;16.42;;
73779;SDS011;62093;37.614;15.072;2022-12-29T16:21:57;27.35;;;17.95;;
73779;SDS011;62093;37.614;15.072;2022-12-29T16:24:26;27.00;;;17.52;;
73779;SDS011;62093;37.614;15.072;2022-12-29T16:29:42;28.38;;;17.58;;
73779;SDS011;62093;37.614;15.072;2022-12-29T16:32:25;27.63;;;17.75;;
73779;SDS011;62093;37.614;15.072;2022-12-29T16:35:03;26.52;;;16.33;;
73779;SDS011;62093;37.614;15.072;2022-12-29T16:37:41;27.23;;;16.80;;
73779;SDS011;62093;37.614;15.072;2022-12-29T16:40:41;25.90;;;15.13;;
73779;SDS011;62093;37.614;15.072;2022-12-29T16:43:03;26.90;;;16.50;;
73779;SDS011;62093;37.614;15.072;2022-12-29T16:45:45;25.02;;;15.85;;
73779;SDS011;62093;37.614;15.072;2022-12-29T16:48:19;26.75;;;16.48;;
73779;SDS011;62093;37.614;15.072;2022-12-29T16:51:11;24.88;;;15.65;;
73779;SDS011;62093;37.614;15.072;2022-12-29T16:53:41;27.00;;;17.40;;
73779;SDS011;62093;37.614;15.072;2022-12-29T16:56:16;30.55;;;18.65;;
73779;SDS011;62093;37.614;15.072;2022-12-29T16:58:48;38.65;;;23.85;;
73779;SDS011;62093;37.614;15.072;2022-12-29T17:01:16;34.00;;;20.65;;
73779;SDS011;62093;37.614;15.072;2022-12-29T17:03:54;28.98;;;18.52;;
73779;SDS011;62093;37.614;15.072;2022-12-29T17:06:24;27.77;;;17.00;;
73779;SDS011;62093;37.614;15.072;2022-12-29T17:08:50;28.05;;;19.45;;
73779;SDS011;62093;37.614;15.072;2022-12-29T17:17:11;34.38;;;21.88;;
73779;SDS011;62093;37.614;15.072;2022-12-29T17:19:50;37.63;;;22.73;;
73779;SDS011;62093;37.614;15.072;2022-12-29T17:22:20;34.70;;;23.25;;
73779;SDS011;62093;37.614;15.072;2022-12-29T17:24:50;37.35;;;23.23;;
73779;SDS011;62093;37.614;15.072;2022-12-29T17:27:26;35.85;;;22.70;;
73779;SDS011;62093;37.614;15.072;2022-12-29T17:29:56;34.55;;;23.60;;
73779;SDS011;62093;37.614;15.072;2022-12-29T17:32:25;31.40;;;20.23;;
73779;SDS011;62093;37.614;15.072;2022-12-29T17:34:51;30.20;;;20.42;;
73779;SDS011;62093;37.614;15.072;2022-12-29T17:39:49;32.17;;;21.38;;
73779;SDS011;62093;37.614;15.072;2022-12-29T17:42:15;31.87;;;20.87;;
73779;SDS011;62093;37.614;15.072;2022-12-29T17:44:42;36.22;;;23.20;;
73779;SDS011;62093;37.614;15.072;2022-12-29T17:47:11;32.95;;;21.77;;
73779;SDS011;62093;37.614;15.072;2022-12-29T17:49:37;27.30;;;18.10;;
73779;SDS011;62093;37.614;15.072;2022-12-29T17:52:03;22.77;;;14.75;;
73779;SDS011;62093;37.614;15.072;2022-12-29T17:54:30;20.73;;;13.37;;
73779;SDS011;62093;37.614;15.072;2022-12-29T17:56:56;20.70;;;12.57;;
73779;SDS011;62093;37.614;15.072;2022-12-29T17:59:22;20.67;;;12.10;;
73779;SDS011;62093;37.614;15.072;2022-12-29T18:01:49;17.50;;;11.27;;
73779;SDS011;62093;37.614;15.072;2022-12-29T18:04:16;18.55;;;11.93;;
73779;SDS011;62093;37.614;15.072;2022-12-29T18:06:44;22.40;;;16.23;;
73779;SDS011;62093;37.614;15.072;2022-12-29T18:09:11;24.15;;;14.70;;
73779;SDS011;62093;37.614;15.072;2022-12-29T18:11:40;18.00;;;12.02;;
73779;SDS011;62093;37.614;15.072;2022-12-29T18:14:11;19.50;;;12.48;;
73779;SDS011;62093;37.614;15.072;2022-12-29T18:16:38;20.15;;;13.90;;
73779;SDS011;62093;37.614;15.072;2022-12-29T18:19:05;17.43;;;10.87;;